sensor_id;sensor_type;location;lat;lon;timestamp;temperature;humidity
27016;DHT22;14557;0.000;0.000;2022-10-16T00:02:00;21.90;57.40
27016;DHT22;14557;0.000;0.000;2022-10-16T00:04:26;21.90;57.50
27016;DHT22;14557;0.000;0.000;2022-10-16T00:06:51;21.90;57.60
27016;DHT22;14557;0.000;0.000;2022-10-16T00:09:17;21.90;57.40
27016;DHT22;14557;0.000;0.000;2022-10-16T00:11:42;21.90;57.40
27016;DHT22;14557;0.000;0.000;2022-10-16T00:14:10;21.80;57.10
27016;DHT22;14557;0.000;0.000;2022-10-16T00:16:36;21.80;57.30
27016;DHT22;14557;0.000;0.000;2022-10-16T00:19:02;21.80;57.40
27016;DHT22;14557;0.000;0.000;2022-10-16T00:21:29;21.80;57.50
27016;DHT22;14557;0.000;0.000;2022-10-16T00:23:55;21.70;57.50
27016;DHT22;14557;0.000;0.000;2022-10-16T00:26:21;21.70;57.70
27016;DHT22;14557;0.000;0.000;2022-10-16T00:28:47;21.70;57.50
27016;DHT22;14557;0.000;0.000;2022-10-16T00:31:14;21.70;57.50
27016;DHT22;14557;0.000;0.000;2022-10-16T00:33:40;21.60;57.60
27016;DHT22;14557;0.000;0.000;2022-10-16T00:36:07;21.60;57.60
27016;DHT22;14557;0.000;0.000;2022-10-16T00:38:33;21.60;57.80
27016;DHT22;14557;0.000;0.000;2022-10-16T00:40:59;21.60;57.80
27016;DHT22;14557;0.000;0.000;2022-10-16T00:46:04;21.50;57.70
27016;DHT22;14557;0.000;0.000;2022-10-16T00:48:30;21.50;57.80
27016;DHT22;14557;0.000;0.000;2022-10-16T00:50:56;21.50;57.80
27016;DHT22;14557;0.000;0.000;2022-10-16T00:53:22;21.50;57.60
27016;DHT22;14557;0.000;0.000;2022-10-16T00:55:48;21.50;57.70
27016;DHT22;14557;0.000;0.000;2022-10-16T00:58:14;21.50;57.80
27016;DHT22;14557;0.000;0.000;2022-10-16T01:00:39;21.40;57.70
27016;DHT22;14557;0.000;0.000;2022-10-16T01:03:22;21.40;57.70
27016;DHT22;14557;0.000;0.000;2022-10-16T01:05:54;21.40;57.80
27016;DHT22;14557;0.000;0.000;2022-10-16T01:11:22;21.40;57.70
27016;DHT22;14557;0.000;0.000;2022-10-16T01:13:54;21.30;57.60
27016;DHT22;14557;0.000;0.000;2022-10-16T01:18:54;21.30;57.60
27016;DHT22;14557;0.000;0.000;2022-10-16T01:21:24;21.30;57.70
27016;DHT22;14557;0.000;0.000;2022-10-16T01:29:09;21.30;57.40
27016;DHT22;14557;0.000;0.000;2022-10-16T01:31:39;21.20;57.40
27016;DHT22;14557;0.000;0.000;2022-10-16T01:34:13;21.20;57.50
27016;DHT22;14557;0.000;0.000;2022-10-16T01:36:45;21.20;57.40
27016;DHT22;14557;0.000;0.000;2022-10-16T01:39:12;21.20;57.60
27016;DHT22;14557;0.000;0.000;2022-10-16T01:41:40;21.20;57.80
27016;DHT22;14557;0.000;0.000;2022-10-16T01:44:19;21.20;57.80
27016;DHT22;14557;0.000;0.000;2022-10-16T01:46:46;21.10;57.80
27016;DHT22;14557;0.000;0.000;2022-10-16T01:49:12;21.10;57.90
27016;DHT22;14557;0.000;0.000;2022-10-16T01:51:38;21.10;57.80
27016;DHT22;14557;0.000;0.000;2022-10-16T01:54:04;21.10;57.70
27016;DHT22;14557;0.000;0.000;2022-10-16T01:56:32;21.00;57.80
27016;DHT22;14557;0.000;0.000;2022-10-16T01:59:00;21.00;57.70
27016;DHT22;14557;0.000;0.000;2022-10-16T02:01:27;21.00;57.70
27016;DHT22;14557;0.000;0.000;2022-10-16T02:03:53;21.00;57.90
27016;DHT22;14557;0.000;0.000;2022-10-16T02:06:20;21.00;58.10
27016;DHT22;14557;0.000;0.000;2022-10-16T02:08:45;21.00;58.30
27016;DHT22;14557;0.000;0.000;2022-10-16T02:11:11;20.90;58.10
27016;DHT22;14557;0.000;0.000;2022-10-16T02:13:57;20.90;58.30
27016;DHT22;14557;0.000;0.000;2022-10-16T02:16:32;20.90;58.00
27016;DHT22;14557;0.000;0.000;2022-10-16T02:18:58;20.90;57.50
27016;DHT22;14557;0.000;0.000;2022-10-16T02:21:25;20.90;57.40
27016;DHT22;14557;0.000;0.000;2022-10-16T02:24:02;20.90;57.50
27016;DHT22;14557;0.000;0.000;2022-10-16T02:26:42;20.80;57.10
27016;DHT22;14557;0.000;0.000;2022-10-16T02:29:11;20.90;57.10
27016;DHT22;14557;0.000;0.000;2022-10-16T02:31:39;20.80;56.90
27016;DHT22;14557;0.000;0.000;2022-10-16T02:34:06;20.80;56.80
27016;DHT22;14557;0.000;0.000;2022-10-16T02:36:33;20.80;57.00
27016;DHT22;14557;0.000;0.000;2022-10-16T02:39:00;20.80;56.90
27016;DHT22;14557;0.000;0.000;2022-10-16T02:41:26;20.80;56.90
27016;DHT22;14557;0.000;0.000;2022-10-16T02:43:52;20.80;57.00
27016;DHT22;14557;0.000;0.000;2022-10-16T02:46:17;20.80;56.80
27016;DHT22;14557;0.000;0.000;2022-10-16T02:48:43;20.80;56.70
27016;DHT22;14557;0.000;0.000;2022-10-16T02:51:09;20.80;56.80
27016;DHT22;14557;0.000;0.000;2022-10-16T02:53:34;20.70;56.80
27016;DHT22;14557;0.000;0.000;2022-10-16T02:56:00;20.70;56.90
27016;DHT22;14557;0.000;0.000;2022-10-16T02:58:26;20.70;56.80
27016;DHT22;14557;0.000;0.000;2022-10-16T03:00:51;20.70;56.70
27016;DHT22;14557;0.000;0.000;2022-10-16T03:03:17;20.70;56.70
27016;DHT22;14557;0.000;0.000;2022-10-16T03:05:43;20.70;56.60
27016;DHT22;14557;0.000;0.000;2022-10-16T03:08:11;20.70;56.70
27016;DHT22;14557;0.000;0.000;2022-10-16T03:10:36;20.70;56.50
27016;DHT22;14557;0.000;0.000;2022-10-16T03:13:02;20.70;56.50
27016;DHT22;14557;0.000;0.000;2022-10-16T03:15:28;20.60;56.70
27016;DHT22;14557;0.000;0.000;2022-10-16T03:17:54;20.60;56.90
27016;DHT22;14557;0.000;0.000;2022-10-16T03:20:20;20.60;57.20
27016;DHT22;14557;0.000;0.000;2022-10-16T03:22:45;20.50;57.10
27016;DHT22;14557;0.000;0.000;2022-10-16T03:25:11;20.50;57.50
27016;DHT22;14557;0.000;0.000;2022-10-16T03:27:37;20.50;57.40
27016;DHT22;14557;0.000;0.000;2022-10-16T03:30:02;20.50;57.60
27016;DHT22;14557;0.000;0.000;2022-10-16T03:32:28;20.50;57.40
27016;DHT22;14557;0.000;0.000;2022-10-16T03:34:54;20.50;57.90
27016;DHT22;14557;0.000;0.000;2022-10-16T03:37:21;20.40;57.80
27016;DHT22;14557;0.000;0.000;2022-10-16T03:39:47;20.40;58.00
27016;DHT22;14557;0.000;0.000;2022-10-16T03:42:12;20.40;57.90
27016;DHT22;14557;0.000;0.000;2022-10-16T03:44:38;20.40;57.90
27016;DHT22;14557;0.000;0.000;2022-10-16T03:47:03;20.30;57.70
27016;DHT22;14557;0.000;0.000;2022-10-16T03:49:29;20.30;58.00
27016;DHT22;14557;0.000;0.000;2022-10-16T03:51:55;20.30;57.80
27016;DHT22;14557;0.000;0.000;2022-10-16T03:54:20;20.30;57.80
27016;DHT22;14557;0.000;0.000;2022-10-16T03:56:47;20.30;57.90
27016;DHT22;14557;0.000;0.000;2022-10-16T03:59:13;20.20;57.20
27016;DHT22;14557;0.000;0.000;2022-10-16T04:01:38;20.30;57.20
27016;DHT22;14557;0.000;0.000;2022-10-16T04:04:04;20.30;57.10
27016;DHT22;14557;0.000;0.000;2022-10-16T04:06:30;20.30;56.80
27016;DHT22;14557;0.000;0.000;2022-10-16T04:08:55;20.30;57.00
27016;DHT22;14557;0.000;0.000;2022-10-16T04:11:21;20.30;57.10
27016;DHT22;14557;0.000;0.000;2022-10-16T04:13:47;20.20;57.00
27016;DHT22;14557;0.000;0.000;2022-10-16T04:16:12;20.20;57.00
27016;DHT22;14557;0.000;0.000;2022-10-16T04:18:38;20.20;57.30
27016;DHT22;14557;0.000;0.000;2022-10-16T04:21:04;20.20;57.00
27016;DHT22;14557;0.000;0.000;2022-10-16T04:23:30;20.20;56.80
27016;DHT22;14557;0.000;0.000;2022-10-16T04:25:55;20.20;56.80
27016;DHT22;14557;0.000;0.000;2022-10-16T04:28:21;20.20;57.10
27016;DHT22;14557;0.000;0.000;2022-10-16T04:30:47;20.20;57.00
27016;DHT22;14557;0.000;0.000;2022-10-16T04:33:12;20.20;56.70
27016;DHT22;14557;0.000;0.000;2022-10-16T04:35:38;20.10;56.70
27016;DHT22;14557;0.000;0.000;2022-10-16T04:38:04;20.20;56.60
27016;DHT22;14557;0.000;0.000;2022-10-16T04:40:29;20.10;56.10
27016;DHT22;14557;0.000;0.000;2022-10-16T04:42:58;20.10;55.80
27016;DHT22;14557;0.000;0.000;2022-10-16T04:45:24;20.10;55.60
27016;DHT22;14557;0.000;0.000;2022-10-16T04:47:49;20.10;55.60
27016;DHT22;14557;0.000;0.000;2022-10-16T04:50:15;20.10;55.80
27016;DHT22;14557;0.000;0.000;2022-10-16T04:52:40;20.10;56.30
27016;DHT22;14557;0.000;0.000;2022-10-16T04:55:06;20.10;56.60
27016;DHT22;14557;0.000;0.000;2022-10-16T04:57:32;20.10;56.50
27016;DHT22;14557;0.000;0.000;2022-10-16T04:59:58;20.00;57.40
27016;DHT22;14557;0.000;0.000;2022-10-16T05:02:24;20.00;59.50
27016;DHT22;14557;0.000;0.000;2022-10-16T05:04:50;20.10;59.00
27016;DHT22;14557;0.000;0.000;2022-10-16T05:07:15;20.00;58.70
27016;DHT22;14557;0.000;0.000;2022-10-16T05:09:41;20.10;58.50
27016;DHT22;14557;0.000;0.000;2022-10-16T05:12:06;20.10;58.90
27016;DHT22;14557;0.000;0.000;2022-10-16T05:14:32;20.00;58.50
27016;DHT22;14557;0.000;0.000;2022-10-16T05:16:59;20.10;58.40
27016;DHT22;14557;0.000;0.000;2022-10-16T05:19:24;20.00;58.20
27016;DHT22;14557;0.000;0.000;2022-10-16T05:21:50;20.00;58.20
27016;DHT22;14557;0.000;0.000;2022-10-16T05:24:15;20.00;58.20
27016;DHT22;14557;0.000;0.000;2022-10-16T05:26:41;20.00;58.20
27016;DHT22;14557;0.000;0.000;2022-10-16T05:29:06;20.10;58.20
27016;DHT22;14557;0.000;0.000;2022-10-16T05:31:32;20.10;58.20
27016;DHT22;14557;0.000;0.000;2022-10-16T05:34:01;20.00;58.10
27016;DHT22;14557;0.000;0.000;2022-10-16T05:36:26;20.10;58.30
27016;DHT22;14557;0.000;0.000;2022-10-16T05:38:52;20.00;58.20
27016;DHT22;14557;0.000;0.000;2022-10-16T05:41:18;20.00;58.20
27016;DHT22;14557;0.000;0.000;2022-10-16T05:43:49;20.00;58.20
27016;DHT22;14557;0.000;0.000;2022-10-16T05:46:15;20.00;58.20
27016;DHT22;14557;0.000;0.000;2022-10-16T05:48:41;20.00;58.30
27016;DHT22;14557;0.000;0.000;2022-10-16T05:51:07;20.00;58.10
27016;DHT22;14557;0.000;0.000;2022-10-16T05:53:35;20.00;58.00
27016;DHT22;14557;0.000;0.000;2022-10-16T05:56:01;20.00;57.90
27016;DHT22;14557;0.000;0.000;2022-10-16T05:58:31;20.00;58.00
27016;DHT22;14557;0.000;0.000;2022-10-16T06:00:59;20.00;57.90
27016;DHT22;14557;0.000;0.000;2022-10-16T06:03:26;20.00;58.00
27016;DHT22;14557;0.000;0.000;2022-10-16T06:05:51;20.00;57.90
27016;DHT22;14557;0.000;0.000;2022-10-16T06:08:18;20.00;57.90
27016;DHT22;14557;0.000;0.000;2022-10-16T06:10:44;19.90;57.80
27016;DHT22;14557;0.000;0.000;2022-10-16T06:13:10;20.00;57.90
27016;DHT22;14557;0.000;0.000;2022-10-16T06:15:35;19.90;57.70
27016;DHT22;14557;0.000;0.000;2022-10-16T06:18:01;20.00;57.80
27016;DHT22;14557;0.000;0.000;2022-10-16T06:20:27;20.00;57.70
27016;DHT22;14557;0.000;0.000;2022-10-16T06:22:52;19.90;57.50
27016;DHT22;14557;0.000;0.000;2022-10-16T06:25:18;20.00;57.60
27016;DHT22;14557;0.000;0.000;2022-10-16T06:27:43;20.00;57.50
27016;DHT22;14557;0.000;0.000;2022-10-16T06:30:09;19.90;57.50
27016;DHT22;14557;0.000;0.000;2022-10-16T06:32:35;19.90;57.60
27016;DHT22;14557;0.000;0.000;2022-10-16T06:35:00;19.90;57.60
27016;DHT22;14557;0.000;0.000;2022-10-16T06:37:26;19.90;57.60
27016;DHT22;14557;0.000;0.000;2022-10-16T06:39:52;19.90;57.80
27016;DHT22;14557;0.000;0.000;2022-10-16T06:42:18;19.90;58.80
27016;DHT22;14557;0.000;0.000;2022-10-16T06:44:43;19.90;59.00
27016;DHT22;14557;0.000;0.000;2022-10-16T06:47:09;19.80;58.80
27016;DHT22;14557;0.000;0.000;2022-10-16T06:49:34;19.80;58.70
27016;DHT22;14557;0.000;0.000;2022-10-16T06:52:00;19.90;58.50
27016;DHT22;14557;0.000;0.000;2022-10-16T06:54:27;19.80;58.40
27016;DHT22;14557;0.000;0.000;2022-10-16T06:56:52;19.80;58.30
27016;DHT22;14557;0.000;0.000;2022-10-16T06:59:20;19.80;58.30
27016;DHT22;14557;0.000;0.000;2022-10-16T07:01:45;19.80;58.20
27016;DHT22;14557;0.000;0.000;2022-10-16T07:04:11;19.80;58.20
27016;DHT22;14557;0.000;0.000;2022-10-16T07:06:37;19.80;58.20
27016;DHT22;14557;0.000;0.000;2022-10-16T07:09:04;19.80;58.10
27016;DHT22;14557;0.000;0.000;2022-10-16T07:11:29;19.80;58.10
27016;DHT22;14557;0.000;0.000;2022-10-16T07:13:55;19.80;58.10
27016;DHT22;14557;0.000;0.000;2022-10-16T07:16:22;19.80;58.10
27016;DHT22;14557;0.000;0.000;2022-10-16T07:18:48;19.80;58.00
27016;DHT22;14557;0.000;0.000;2022-10-16T07:21:19;19.80;57.90
27016;DHT22;14557;0.000;0.000;2022-10-16T07:23:49;19.80;57.80
27016;DHT22;14557;0.000;0.000;2022-10-16T07:26:15;19.80;57.80
27016;DHT22;14557;0.000;0.000;2022-10-16T07:28:41;19.80;57.70
27016;DHT22;14557;0.000;0.000;2022-10-16T07:31:09;19.80;57.70
27016;DHT22;14557;0.000;0.000;2022-10-16T07:33:36;19.80;58.20
27016;DHT22;14557;0.000;0.000;2022-10-16T07:36:02;19.80;58.10
27016;DHT22;14557;0.000;0.000;2022-10-16T07:38:28;19.80;58.30
27016;DHT22;14557;0.000;0.000;2022-10-16T07:41:00;19.80;58.40
27016;DHT22;14557;0.000;0.000;2022-10-16T07:43:26;19.90;58.40
27016;DHT22;14557;0.000;0.000;2022-10-16T07:45:52;19.90;58.60
27016;DHT22;14557;0.000;0.000;2022-10-16T07:48:18;19.90;59.80
27016;DHT22;14557;0.000;0.000;2022-10-16T07:50:44;20.00;69.00
27016;DHT22;14557;0.000;0.000;2022-10-16T07:53:10;20.10;73.80
27016;DHT22;14557;0.000;0.000;2022-10-16T07:55:36;20.10;68.10
27016;DHT22;14557;0.000;0.000;2022-10-16T07:58:02;20.10;64.70
27016;DHT22;14557;0.000;0.000;2022-10-16T08:00:27;20.10;64.60
27016;DHT22;14557;0.000;0.000;2022-10-16T08:02:53;20.10;63.20
27016;DHT22;14557;0.000;0.000;2022-10-16T08:05:19;20.20;68.10
27016;DHT22;14557;0.000;0.000;2022-10-16T08:07:48;20.20;64.80
27016;DHT22;14557;0.000;0.000;2022-10-16T08:10:18;20.20;66.70
27016;DHT22;14557;0.000;0.000;2022-10-16T08:12:44;20.20;65.10
27016;DHT22;14557;0.000;0.000;2022-10-16T08:15:10;20.20;62.90
27016;DHT22;14557;0.000;0.000;2022-10-16T08:17:35;20.20;63.30
27016;DHT22;14557;0.000;0.000;2022-10-16T08:20:01;20.20;62.00
27016;DHT22;14557;0.000;0.000;2022-10-16T08:22:27;20.20;61.10
27016;DHT22;14557;0.000;0.000;2022-10-16T08:24:53;20.20;60.60
27016;DHT22;14557;0.000;0.000;2022-10-16T08:27:18;20.20;60.40
27016;DHT22;14557;0.000;0.000;2022-10-16T08:29:44;20.20;60.10
27016;DHT22;14557;0.000;0.000;2022-10-16T08:32:09;20.20;60.00
27016;DHT22;14557;0.000;0.000;2022-10-16T08:34:35;20.20;59.70
27016;DHT22;14557;0.000;0.000;2022-10-16T08:37:00;20.20;59.50
27016;DHT22;14557;0.000;0.000;2022-10-16T08:39:26;20.20;59.10
27016;DHT22;14557;0.000;0.000;2022-10-16T08:46:55;20.30;58.90
27016;DHT22;14557;0.000;0.000;2022-10-16T08:49:26;20.30;58.50
27016;DHT22;14557;0.000;0.000;2022-10-16T08:51:52;20.30;59.70
27016;DHT22;14557;0.000;0.000;2022-10-16T08:54:23;20.40;59.60
27016;DHT22;14557;0.000;0.000;2022-10-16T08:56:53;20.50;59.40
27016;DHT22;14557;0.000;0.000;2022-10-16T08:59:19;20.50;59.50
27016;DHT22;14557;0.000;0.000;2022-10-16T09:01:45;20.50;59.70
27016;DHT22;14557;0.000;0.000;2022-10-16T09:06:42;20.70;59.40
27016;DHT22;14557;0.000;0.000;2022-10-16T09:12:00;20.80;58.00
27016;DHT22;14557;0.000;0.000;2022-10-16T09:14:45;20.80;57.90
27016;DHT22;14557;0.000;0.000;2022-10-16T09:17:18;20.90;57.50
27016;DHT22;14557;0.000;0.000;2022-10-16T09:19:52;21.00;56.90
27016;DHT22;14557;0.000;0.000;2022-10-16T09:22:19;21.00;56.50
27016;DHT22;14557;0.000;0.000;2022-10-16T09:24:47;21.00;56.60
27016;DHT22;14557;0.000;0.000;2022-10-16T09:27:14;21.00;56.30
27016;DHT22;14557;0.000;0.000;2022-10-16T09:29:39;21.00;56.20
27016;DHT22;14557;0.000;0.000;2022-10-16T09:32:12;21.10;56.10
27016;DHT22;14557;0.000;0.000;2022-10-16T09:34:42;21.10;55.90
27016;DHT22;14557;0.000;0.000;2022-10-16T09:37:09;21.10;61.30
27016;DHT22;14557;0.000;0.000;2022-10-16T09:39:48;21.10;59.40
27016;DHT22;14557;0.000;0.000;2022-10-16T09:42:15;21.20;57.40
27016;DHT22;14557;0.000;0.000;2022-10-16T09:44:41;21.20;56.20
27016;DHT22;14557;0.000;0.000;2022-10-16T09:47:14;21.30;55.80
27016;DHT22;14557;0.000;0.000;2022-10-16T09:52:17;21.40;55.50
27016;DHT22;14557;0.000;0.000;2022-10-16T09:57:18;21.50;55.00
27016;DHT22;14557;0.000;0.000;2022-10-16T10:02:17;21.60;54.80
27016;DHT22;14557;0.000;0.000;2022-10-16T10:04:46;21.60;55.40
27016;DHT22;14557;0.000;0.000;2022-10-16T10:09:51;21.70;54.70
27016;DHT22;14557;0.000;0.000;2022-10-16T10:12:24;21.70;54.30
27016;DHT22;14557;0.000;0.000;2022-10-16T10:14:51;21.80;54.10
27016;DHT22;14557;0.000;0.000;2022-10-16T10:17:21;21.90;53.90
27016;DHT22;14557;0.000;0.000;2022-10-16T10:19:51;21.90;53.70
27016;DHT22;14557;0.000;0.000;2022-10-16T10:24:44;22.00;53.80
27016;DHT22;14557;0.000;0.000;2022-10-16T10:27:11;22.00;53.50
27016;DHT22;14557;0.000;0.000;2022-10-16T10:29:45;22.10;53.60
27016;DHT22;14557;0.000;0.000;2022-10-16T10:32:16;22.10;53.50
27016;DHT22;14557;0.000;0.000;2022-10-16T10:39:48;22.20;53.20
27016;DHT22;14557;0.000;0.000;2022-10-16T10:42:18;22.20;53.00
27016;DHT22;14557;0.000;0.000;2022-10-16T10:52:43;22.30;52.70
27016;DHT22;14557;0.000;0.000;2022-10-16T11:00:56;22.50;52.50
27016;DHT22;14557;0.000;0.000;2022-10-16T11:03:45;22.50;52.40
27016;DHT22;14557;0.000;0.000;2022-10-16T11:06:17;22.50;52.30
27016;DHT22;14557;0.000;0.000;2022-10-16T11:08:45;22.60;52.50
27016;DHT22;14557;0.000;0.000;2022-10-16T11:11:34;22.60;54.30
27016;DHT22;14557;0.000;0.000;2022-10-16T11:14:03;22.70;54.20
27016;DHT22;14557;0.000;0.000;2022-10-16T11:16:32;22.70;53.40
27016;DHT22;14557;0.000;0.000;2022-10-16T11:19:03;22.70;52.90
27016;DHT22;14557;0.000;0.000;2022-10-16T11:21:31;22.80;53.80
27016;DHT22;14557;0.000;0.000;2022-10-16T11:24:01;22.80;54.90
27016;DHT22;14557;0.000;0.000;2022-10-16T11:26:30;22.80;61.20
27016;DHT22;14557;0.000;0.000;2022-10-16T11:28:59;22.90;60.30
27016;DHT22;14557;0.000;0.000;2022-10-16T11:31:32;22.90;61.50
27016;DHT22;14557;0.000;0.000;2022-10-16T11:34:03;23.00;58.30
27016;DHT22;14557;0.000;0.000;2022-10-16T11:36:36;23.00;58.20
27016;DHT22;14557;0.000;0.000;2022-10-16T11:46:40;23.10;57.70
27016;DHT22;14557;0.000;0.000;2022-10-16T11:49:11;23.10;55.50
27016;DHT22;14557;0.000;0.000;2022-10-16T11:51:42;23.20;53.80
27016;DHT22;14557;0.000;0.000;2022-10-16T11:56:44;23.20;53.60
27016;DHT22;14557;0.000;0.000;2022-10-16T11:59:14;23.30;53.30
27016;DHT22;14557;0.000;0.000;2022-10-16T12:01:44;23.30;53.10
27016;DHT22;14557;0.000;0.000;2022-10-16T12:06:51;23.40;53.00
27016;DHT22;14557;0.000;0.000;2022-10-16T12:09:28;23.40;52.80
27016;DHT22;14557;0.000;0.000;2022-10-16T12:11:54;23.40;53.00
27016;DHT22;14557;0.000;0.000;2022-10-16T12:19:17;23.30;54.30
27016;DHT22;14557;0.000;0.000;2022-10-16T12:21:43;23.40;59.70
27016;DHT22;14557;0.000;0.000;2022-10-16T12:27:25;23.40;60.00
27016;DHT22;14557;0.000;0.000;2022-10-16T12:29:59;23.40;56.10
27016;DHT22;14557;0.000;0.000;2022-10-16T12:32:35;23.30;55.00
27016;DHT22;14557;0.000;0.000;2022-10-16T12:35:01;23.30;60.10
27016;DHT22;14557;0.000;0.000;2022-10-16T12:37:29;23.30;57.00
27016;DHT22;14557;0.000;0.000;2022-10-16T12:39:56;23.30;60.30
27016;DHT22;14557;0.000;0.000;2022-10-16T12:42:30;23.30;59.40
27016;DHT22;14557;0.000;0.000;2022-10-16T12:44:56;23.30;63.00
27016;DHT22;14557;0.000;0.000;2022-10-16T12:47:23;23.40;55.80
27016;DHT22;14557;0.000;0.000;2022-10-16T12:49:51;23.30;55.10
27016;DHT22;14557;0.000;0.000;2022-10-16T12:52:24;23.30;53.90
27016;DHT22;14557;0.000;0.000;2022-10-16T12:54:50;23.30;54.50
27016;DHT22;14557;0.000;0.000;2022-10-16T13:18:29;23.30;54.70
27016;DHT22;14557;0.000;0.000;2022-10-16T13:24:38;23.30;53.50
27016;DHT22;14557;0.000;0.000;2022-10-16T13:26:46;23.30;52.40
27016;DHT22;14557;0.000;0.000;2022-10-16T13:29:14;23.20;52.40
27016;DHT22;14557;0.000;0.000;2022-10-16T13:31:40;23.20;52.40
27016;DHT22;14557;0.000;0.000;2022-10-16T13:34:11;23.20;52.40
27016;DHT22;14557;0.000;0.000;2022-10-16T13:39:11;23.20;52.60
27016;DHT22;14557;0.000;0.000;2022-10-16T13:41:37;23.20;52.90
27016;DHT22;14557;0.000;0.000;2022-10-16T13:44:02;23.20;53.60
27016;DHT22;14557;0.000;0.000;2022-10-16T13:46:29;23.20;52.70
27016;DHT22;14557;0.000;0.000;2022-10-16T13:49:03;23.20;52.50
27016;DHT22;14557;0.000;0.000;2022-10-16T13:51:30;23.20;52.40
27016;DHT22;14557;0.000;0.000;2022-10-16T13:53:56;23.20;52.60
27016;DHT22;14557;0.000;0.000;2022-10-16T13:56:26;23.20;52.70
27016;DHT22;14557;0.000;0.000;2022-10-16T13:59:03;23.20;52.50
27016;DHT22;14557;0.000;0.000;2022-10-16T14:01:35;23.20;52.40
27016;DHT22;14557;0.000;0.000;2022-10-16T14:04:06;23.20;52.40
27016;DHT22;14557;0.000;0.000;2022-10-16T14:06:32;23.20;52.50
27016;DHT22;14557;0.000;0.000;2022-10-16T14:08:59;23.20;53.20
27016;DHT22;14557;0.000;0.000;2022-10-16T14:11:26;23.20;53.70
27016;DHT22;14557;0.000;0.000;2022-10-16T14:13:52;23.20;52.50
27016;DHT22;14557;0.000;0.000;2022-10-16T14:16:19;23.20;52.50
27016;DHT22;14557;0.000;0.000;2022-10-16T14:18:45;23.20;52.20
27016;DHT22;14557;0.000;0.000;2022-10-16T14:21:13;23.20;52.20
27016;DHT22;14557;0.000;0.000;2022-10-16T14:23:39;23.20;52.20
27016;DHT22;14557;0.000;0.000;2022-10-16T14:28:34;23.10;52.10
27016;DHT22;14557;0.000;0.000;2022-10-16T14:31:00;23.10;52.10
27016;DHT22;14557;0.000;0.000;2022-10-16T14:36:11;23.10;52.00
27016;DHT22;14557;0.000;0.000;2022-10-16T14:38:38;23.10;52.10
27016;DHT22;14557;0.000;0.000;2022-10-16T14:41:03;23.00;52.00
27016;DHT22;14557;0.000;0.000;2022-10-16T14:43:33;23.00;52.10
27016;DHT22;14557;0.000;0.000;2022-10-16T14:45:59;23.00;52.00
27016;DHT22;14557;0.000;0.000;2022-10-16T14:48:26;23.00;52.00
27016;DHT22;14557;0.000;0.000;2022-10-16T14:50:52;22.90;52.10
27016;DHT22;14557;0.000;0.000;2022-10-16T14:53:18;22.90;52.00
27016;DHT22;14557;0.000;0.000;2022-10-16T14:55:44;22.90;52.10
27016;DHT22;14557;0.000;0.000;2022-10-16T14:58:16;22.90;52.00
27016;DHT22;14557;0.000;0.000;2022-10-16T15:00:42;22.90;51.50
27016;DHT22;14557;0.000;0.000;2022-10-16T15:03:08;22.80;51.70
27016;DHT22;14557;0.000;0.000;2022-10-16T15:05:34;22.80;51.70
27016;DHT22;14557;0.000;0.000;2022-10-16T15:07:59;22.80;51.50
27016;DHT22;14557;0.000;0.000;2022-10-16T15:10:25;22.80;51.50
27016;DHT22;14557;0.000;0.000;2022-10-16T15:12:52;22.70;51.60
27016;DHT22;14557;0.000;0.000;2022-10-16T15:17:47;22.70;51.80
27016;DHT22;14557;0.000;0.000;2022-10-16T15:20:13;22.70;51.90
27016;DHT22;14557;0.000;0.000;2022-10-16T15:22:38;22.70;51.90
27016;DHT22;14557;0.000;0.000;2022-10-16T15:25:17;22.60;51.90
27016;DHT22;14557;0.000;0.000;2022-10-16T15:27:45;22.60;51.90
27016;DHT22;14557;0.000;0.000;2022-10-16T15:30:11;22.60;51.90
27016;DHT22;14557;0.000;0.000;2022-10-16T15:32:36;22.60;51.90
27016;DHT22;14557;0.000;0.000;2022-10-16T15:35:02;22.50;52.00
27016;DHT22;14557;0.000;0.000;2022-10-16T15:37:28;22.50;52.00
27016;DHT22;14557;0.000;0.000;2022-10-16T15:39:53;22.50;52.10
27016;DHT22;14557;0.000;0.000;2022-10-16T15:42:19;22.50;52.00
27016;DHT22;14557;0.000;0.000;2022-10-16T15:44:44;22.50;52.20
27016;DHT22;14557;0.000;0.000;2022-10-16T15:47:10;22.40;52.30
27016;DHT22;14557;0.000;0.000;2022-10-16T15:49:35;22.40;52.20
27016;DHT22;14557;0.000;0.000;2022-10-16T15:52:01;22.40;52.30
27016;DHT22;14557;0.000;0.000;2022-10-16T15:54:27;22.40;52.30
27016;DHT22;14557;0.000;0.000;2022-10-16T15:56:52;22.40;52.30
27016;DHT22;14557;0.000;0.000;2022-10-16T15:59:18;22.30;52.30
27016;DHT22;14557;0.000;0.000;2022-10-16T16:01:43;22.30;52.40
27016;DHT22;14557;0.000;0.000;2022-10-16T16:04:09;22.30;52.40
27016;DHT22;14557;0.000;0.000;2022-10-16T16:06:35;22.30;52.50
27016;DHT22;14557;0.000;0.000;2022-10-16T16:09:02;22.20;52.50
27016;DHT22;14557;0.000;0.000;2022-10-16T16:11:28;22.20;52.60
27016;DHT22;14557;0.000;0.000;2022-10-16T16:13:54;22.20;52.60
27016;DHT22;14557;0.000;0.000;2022-10-16T16:16:20;22.20;52.70
27016;DHT22;14557;0.000;0.000;2022-10-16T16:18:46;22.20;52.70
27016;DHT22;14557;0.000;0.000;2022-10-16T16:21:13;22.10;53.20
27016;DHT22;14557;0.000;0.000;2022-10-16T16:23:39;22.10;53.20
27016;DHT22;14557;0.000;0.000;2022-10-16T16:26:06;22.10;52.90
27016;DHT22;14557;0.000;0.000;2022-10-16T16:28:32;22.10;53.10
27016;DHT22;14557;0.000;0.000;2022-10-16T16:30:57;22.10;53.10
27016;DHT22;14557;0.000;0.000;2022-10-16T16:33:23;22.00;53.20
27016;DHT22;14557;0.000;0.000;2022-10-16T16:35:49;22.00;53.20
27016;DHT22;14557;0.000;0.000;2022-10-16T16:38:14;22.00;53.20
27016;DHT22;14557;0.000;0.000;2022-10-16T16:40:40;22.00;53.80
27016;DHT22;14557;0.000;0.000;2022-10-16T16:43:05;22.00;55.60
27016;DHT22;14557;0.000;0.000;2022-10-16T16:45:34;22.00;55.60
27016;DHT22;14557;0.000;0.000;2022-10-16T16:48:00;22.00;55.90
27016;DHT22;14557;0.000;0.000;2022-10-16T16:50:25;22.00;56.10
27016;DHT22;14557;0.000;0.000;2022-10-16T16:52:51;22.00;56.60
27016;DHT22;14557;0.000;0.000;2022-10-16T16:55:17;22.00;58.10
27016;DHT22;14557;0.000;0.000;2022-10-16T16:57:42;22.00;57.50
27016;DHT22;14557;0.000;0.000;2022-10-16T17:00:08;22.00;58.70
27016;DHT22;14557;0.000;0.000;2022-10-16T17:02:33;22.00;57.40
27016;DHT22;14557;0.000;0.000;2022-10-16T17:04:59;22.00;56.90
27016;DHT22;14557;0.000;0.000;2022-10-16T17:07:25;22.00;56.80
27016;DHT22;14557;0.000;0.000;2022-10-16T17:09:52;21.90;56.70
27016;DHT22;14557;0.000;0.000;2022-10-16T17:12:17;21.90;58.00
27016;DHT22;14557;0.000;0.000;2022-10-16T17:14:43;22.00;57.60
27016;DHT22;14557;0.000;0.000;2022-10-16T17:17:08;22.00;58.90
27016;DHT22;14557;0.000;0.000;2022-10-16T17:19:34;21.90;59.80
27016;DHT22;14557;0.000;0.000;2022-10-16T17:21:59;22.00;59.80
27016;DHT22;14557;0.000;0.000;2022-10-16T17:24:25;22.00;59.30
27016;DHT22;14557;0.000;0.000;2022-10-16T17:26:51;21.90;59.60
27016;DHT22;14557;0.000;0.000;2022-10-16T17:29:16;22.00;60.80
27016;DHT22;14557;0.000;0.000;2022-10-16T17:31:43;21.90;61.20
27016;DHT22;14557;0.000;0.000;2022-10-16T17:34:08;22.00;64.40
27016;DHT22;14557;0.000;0.000;2022-10-16T17:36:36;22.00;60.30